Wetterdaten: Woche 15.10.18 - 21.10.18 (KW42)
Datum Zeit Temperatur Luftfeuchte Luftdruck Niederschlag Windrichtung Sonnenschein Solar Wind
15.10.2018 00:00 8,6 C 82 % 1011,2 hPa 0,0 l/m N 0,00 h 0 W/m 0,0 km/h (0 Bft)
15.10.2018 01:00 8,1 C 84 % 1011,4 hPa 0,0 l/m N 0,00 h 0 W/m 0,0 km/h (0 Bft)
15.10.2018 02:00 7,7 C 86 % 1011,5 hPa 0,0 l/m N 0,00 h 0 W/m 0,0 km/h (0 Bft)
15.10.2018 03:00 7,5 C 86 % 1011,5 hPa 0,0 l/m N 0,00 h 0 W/m 0,0 km/h (0 Bft)
15.10.2018 04:00 7,1 C 86 % 1011,6 hPa 0,0 l/m N 0,00 h 0 W/m 0,0 km/h (0 Bft)
15.10.2018 05:00 6,8 C 87 % 1011,6 hPa 0,0 l/m N 0,00 h 0 W/m 0,3 km/h (0 Bft)
15.10.2018 06:00 6,5 C 88 % 1011,8 hPa 0,0 l/m N 0,00 h 0 W/m 0,0 km/h (0 Bft)
15.10.2018 07:00 6,0 C 89 % 1012,0 hPa 0,0 l/m N 0,00 h 9 W/m 0,0 km/h (0 Bft)
15.10.2018 08:00 6,0 C 90 % 1012,4 hPa 0,0 l/m N 0,50 h 68 W/m 0,1 km/h (0 Bft)
15.10.2018 09:00 8,8 C 88 % 1012,8 hPa 0,0 l/m SW 0,92 h 217 W/m 0,9 km/h (0 Bft)
15.10.2018 10:00 13,2 C 72 % 1012,8 hPa 0,0 l/m N 1,00 h 374 W/m 0,0 km/h (0 Bft)
15.10.2018 11:00 17,2 C 59 % 1012,6 hPa 0,0 l/m N 0,92 h 453 W/m 0,5 km/h (0 Bft)
15.10.2018 12:00 20,6 C 48 % 1012,2 hPa 0,0 l/m SW 1,00 h 546 W/m 3,1 km/h (1 Bft)
15.10.2018 13:00 22,6 C 38 % 1011,9 hPa 0,0 l/m SO 1,00 h 552 W/m 8,0 km/h (2 Bft)
15.10.2018 14:00 23,3 C 34 % 1011,5 hPa 0,0 l/m SW 1,00 h 510 W/m 10,9 km/h (2 Bft)
15.10.2018 15:00 23,5 C 31 % 1011,3 hPa 0,0 l/m S-SO 1,00 h 412 W/m 9,5 km/h (2 Bft)
15.10.2018 16:00 22,9 C 33 % 1011,4 hPa 0,0 l/m S 1,00 h 271 W/m 7,6 km/h (2 Bft)
15.10.2018 17:00 21,6 C 37 % 1011,5 hPa 0,0 l/m N 0,67 h 100 W/m 2,3 km/h (1 Bft)
15.10.2018 18:00 17,0 C 57 % 1012,1 hPa 0,0 l/m N 0,08 h 15 W/m 0,0 km/h (0 Bft)
15.10.2018 19:00 14,7 C 62 % 1012,7 hPa 0,0 l/m S 0,00 h 0 W/m 0,5 km/h (0 Bft)
15.10.2018 20:00 13,1 C 69 % 1012,9 hPa 0,0 l/m N 0,00 h 0 W/m 0,0 km/h (0 Bft)
15.10.2018 21:00 11,9 C 74 % 1013,3 hPa 0,0 l/m S 0,00 h 0 W/m 1,3 km/h (1 Bft)
15.10.2018 22:00 11,0 C 75 % 1013,7 hPa 0,0 l/m N 0,00 h 0 W/m 0,0 km/h (0 Bft)
15.10.2018 23:00 10,1 C 77 % 1013,8 hPa 0,0 l/m N 0,00 h 0 W/m 0,0 km/h (0 Bft)
16.10.2018 00:00 9,2 C 80 % 1014,1 hPa 0,0 l/m N 0,00 h 0 W/m 0,0 km/h (0 Bft)
16.10.2018 01:00 8,5 C 82 % 1014,5 hPa 0,0 l/m N 0,00 h 0 W/m 0,0 km/h (0 Bft)
16.10.2018 02:00 7,9 C 84 % 1014,8 hPa 0,0 l/m N 0,00 h 0 W/m 0,0 km/h (0 Bft)
16.10.2018 03:00 7,2 C 85 % 1015,1 hPa 0,0 l/m N 0,00 h 0 W/m 0,0 km/h (0 Bft)
16.10.2018 04:00 6,7 C 87 % 1015,2 hPa 0,0 l/m N 0,00 h 0 W/m 0,0 km/h (0 Bft)
16.10.2018 05:00 6,2 C 89 % 1015,7 hPa 0,0 l/m N 0,00 h 0 W/m 0,0 km/h (0 Bft)
16.10.2018 06:00 5,7 C 90 % 1015,9 hPa 0,0 l/m N 0,00 h 0 W/m 0,0 km/h (0 Bft)
16.10.2018 07:00 5,3 C 91 % 1016,3 hPa 0,0 l/m N 0,00 h 8 W/m 0,0 km/h (0 Bft)
16.10.2018 08:00 5,0 C 92 % 1016,7 hPa 0,0 l/m N 0,42 h 65 W/m 0,0 km/h (0 Bft)
16.10.2018 09:00 7,7 C 93 % 1017,0 hPa 0,0 l/m N 1,00 h 214 W/m 0,0 km/h (0 Bft)
16.10.2018 10:00 11,8 C 81 % 1017,1 hPa 0,0 l/m N 1,00 h 368 W/m 0,0 km/h (0 Bft)
16.10.2018 11:00 15,7 C 67 % 1017,0 hPa 0,0 l/m S 0,92 h 436 W/m 5,5 km/h (1 Bft)
16.10.2018 12:00 18,9 C 52 % 1016,9 hPa 0,0 l/m N 1,00 h 528 W/m 1,7 km/h (1 Bft)
16.10.2018 13:00 20,5 C 45 % 1016,5 hPa 0,0 l/m S 1,00 h 535 W/m 4,1 km/h (1 Bft)
16.10.2018 14:00 21,5 C 43 % 1016,4 hPa 0,0 l/m SO 1,00 h 501 W/m 4,7 km/h (1 Bft)
16.10.2018 15:00 22,0 C 41 % 1016,4 hPa 0,0 l/m SO 1,00 h 403 W/m 4,5 km/h (1 Bft)
16.10.2018 16:00 21,7 C 42 % 1016,3 hPa 0,0 l/m O-NO 1,00 h 271 W/m 9,1 km/h (2 Bft)
16.10.2018 17:00 20,3 C 45 % 1016,3 hPa 0,0 l/m O-NO 0,67 h 95 W/m 4,1 km/h (1 Bft)
16.10.2018 18:00 16,1 C 61 % 1016,4 hPa 0,0 l/m N 0,00 h 10 W/m 0,1 km/h (0 Bft)
16.10.2018 19:00 14,0 C 66 % 1017,0 hPa 0,0 l/m N 0,00 h 0 W/m 0,0 km/h (0 Bft)
16.10.2018 20:00 12,4 C 72 % 1017,4 hPa 0,0 l/m N 0,00 h 0 W/m 0,0 km/h (0 Bft)
16.10.2018 21:00 11,0 C 76 % 1017,6 hPa 0,0 l/m N 0,00 h 0 W/m 0,0 km/h (0 Bft)
16.10.2018 22:00 9,9 C 78 % 1017,7 hPa 0,0 l/m N 0,00 h 0 W/m 0,0 km/h (0 Bft)
16.10.2018 23:00 9,1 C 81 % 1017,6 hPa 0,0 l/m N 0,00 h 0 W/m 0,7 km/h (0 Bft)
17.10.2018 00:00 9,1 C 84 % 1017,6 hPa 0,0 l/m O-NO 0,00 h 0 W/m 3,2 km/h (1 Bft)
17.10.2018 01:00 9,4 C 81 % 1017,7 hPa 0,0 l/m N 0,00 h 0 W/m 0,0 km/h (0 Bft)
17.10.2018 02:00 8,2 C 81 % 1017,6 hPa 0,0 l/m N 0,00 h 0 W/m 0,0 km/h (0 Bft)
17.10.2018 03:00 7,0 C 84 % 1017,6 hPa 0,0 l/m N 0,00 h 0 W/m 0,0 km/h (0 Bft)
17.10.2018 04:00 6,3 C 86 % 1017,4 hPa 0,0 l/m N 0,00 h 0 W/m 0,0 km/h (0 Bft)
17.10.2018 05:00 5,7 C 88 % 1017,2 hPa 0,0 l/m N 0,00 h 0 W/m 0,0 km/h (0 Bft)
17.10.2018 06:00 5,2 C 89 % 1017,3 hPa 0,0 l/m N 0,00 h 0 W/m 0,0 km/h (0 Bft)
17.10.2018 07:00 4,9 C 91 % 1017,4 hPa 0,0 l/m N 0,08 h 8 W/m 0,0 km/h (0 Bft)
17.10.2018 08:00 5,0 C 93 % 1017,6 hPa 0,0 l/m N 0,42 h 62 W/m 0,0 km/h (0 Bft)
17.10.2018 09:00 8,1 C 91 % 1017,6 hPa 0,0 l/m N 0,83 h 197 W/m 0,0 km/h (0 Bft)
17.10.2018 10:00 12,1 C 77 % 1017,6 hPa 0,0 l/m N 1,00 h 360 W/m 0,0 km/h (0 Bft)
17.10.2018 11:00 15,6 C 62 % 1017,5 hPa 0,0 l/m N 0,92 h 443 W/m 0,0 km/h (0 Bft)
17.10.2018 12:00 18,1 C 55 % 1017,0 hPa 0,0 l/m O-NO 1,00 h 529 W/m 2,5 km/h (1 Bft)
17.10.2018 13:00 20,0 C 52 % 1016,3 hPa 0,0 l/m O-NO 1,00 h 535 W/m 9,4 km/h (2 Bft)
17.10.2018 14:00 20,8 C 49 % 1015,5 hPa 0,0 l/m O-NO 1,00 h 492 W/m 11,1 km/h (2 Bft)
17.10.2018 15:00 20,9 C 48 % 1015,2 hPa 0,0 l/m O-NO 1,00 h 398 W/m 13,2 km/h (3 Bft)
17.10.2018 16:00 20,4 C 50 % 1015,1 hPa 0,0 l/m O-NO 1,00 h 263 W/m 13,4 km/h (3 Bft)
17.10.2018 17:00 19,0 C 55 % 1015,1 hPa 0,0 l/m O-NO 0,17 h 61 W/m 6,8 km/h (2 Bft)
17.10.2018 18:00 16,3 C 64 % 1015,2 hPa 0,0 l/m N 0,00 h 12 W/m 0,0 km/h (0 Bft)
17.10.2018 19:00 14,3 C 69 % 1015,6 hPa 0,0 l/m N 0,00 h 0 W/m 0,3 km/h (0 Bft)
17.10.2018 20:00 12,8 C 75 % 1016,0 hPa 0,0 l/m N 0,00 h 0 W/m 0,1 km/h (0 Bft)
17.10.2018 21:00 11,9 C 77 % 1016,5 hPa 0,0 l/m N 0,00 h 0 W/m 0,0 km/h (0 Bft)
17.10.2018 22:00 11,1 C 80 % 1016,5 hPa 0,0 l/m N 0,00 h 0 W/m 0,7 km/h (0 Bft)
17.10.2018 23:00 10,4 C 83 % 1016,6 hPa 0,0 l/m N 0,00 h 0 W/m 0,3 km/h (0 Bft)
18.10.2018 00:00 9,9 C 85 % 1016,6 hPa 0,0 l/m N 0,00 h 0 W/m 0,5 km/h (0 Bft)
18.10.2018 01:00 9,6 C 88 % 1016,5 hPa 0,0 l/m N 0,00 h 0 W/m 0,0 km/h (0 Bft)
18.10.2018 02:00 9,4 C 89 % 1016,7 hPa 0,0 l/m O-NO 0,00 h 0 W/m 0,7 km/h (0 Bft)
18.10.2018 03:00 9,3 C 90 % 1016,4 hPa 0,0 l/m N 0,00 h 0 W/m 3,5 km/h (1 Bft)
18.10.2018 04:00 9,4 C 91 % 1016,2 hPa 0,0 l/m O-NO 0,00 h 0 W/m 4,7 km/h (1 Bft)
18.10.2018 05:00 9,3 C 91 % 1016,2 hPa 0,0 l/m N 0,00 h 0 W/m 0,4 km/h (0 Bft)
18.10.2018 06:00 8,8 C 91 % 1016,2 hPa 0,0 l/m NO 0,00 h 0 W/m 1,5 km/h (1 Bft)
18.10.2018 07:00 8,6 C 92 % 1016,4 hPa 0,0 l/m NO 0,00 h 10 W/m 4,3 km/h (1 Bft)
18.10.2018 08:00 8,7 C 93 % 1016,9 hPa 0,0 l/m N 0,08 h 46 W/m 0,0 km/h (0 Bft)
18.10.2018 09:00 10,0 C 93 % 1017,2 hPa 0,0 l/m NO 0,50 h 158 W/m 1,2 km/h (1 Bft)
18.10.2018 10:00 12,1 C 88 % 1017,2 hPa 0,0 l/m NO 1,00 h 281 W/m 3,6 km/h (1 Bft)
18.10.2018 11:00 14,6 C 79 % 1017,4 hPa 0,0 l/m O 1,00 h 339 W/m 8,3 km/h (2 Bft)
18.10.2018 12:00 16,1 C 72 % 1017,3 hPa 0,0 l/m O-NO 1,00 h 407 W/m 13,0 km/h (3 Bft)
18.10.2018 13:00 17,6 C 67 % 1016,6 hPa 0,0 l/m O-NO 1,00 h 434 W/m 15,7 km/h (3 Bft)
18.10.2018 14:00 18,7 C 61 % 1016,3 hPa 0,0 l/m O-NO 1,00 h 399 W/m 16,4 km/h (3 Bft)
18.10.2018 15:00 18,7 C 61 % 1016,1 hPa 0,0 l/m O-NO 1,00 h 333 W/m 15,8 km/h (3 Bft)
18.10.2018 16:00 18,5 C 61 % 1015,9 hPa 0,0 l/m O-NO 1,00 h 230 W/m 16,4 km/h (3 Bft)
18.10.2018 17:00 17,6 C 64 % 1016,0 hPa 0,0 l/m O-NO 0,33 h 77 W/m 9,7 km/h (2 Bft)
18.10.2018 18:00 15,2 C 74 % 1016,5 hPa 0,0 l/m N 0,08 h 12 W/m 0,0 km/h (0 Bft)
18.10.2018 19:00 12,6 C 82 % 1017,2 hPa 0,0 l/m N 0,00 h 0 W/m 0,0 km/h (0 Bft)
18.10.2018 20:00 12,3 C 84 % 1017,5 hPa 0,0 l/m O-NO 0,00 h 0 W/m 5,9 km/h (2 Bft)
18.10.2018 21:00 12,9 C 82 % 1018,0 hPa 0,0 l/m O-NO 0,00 h 0 W/m 7,4 km/h (2 Bft)
18.10.2018 22:00 12,5 C 81 % 1018,2 hPa 0,0 l/m N 0,00 h 0 W/m 0,1 km/h (0 Bft)
18.10.2018 23:00 11,1 C 85 % 1018,3 hPa 0,0 l/m O-NO 0,00 h 0 W/m 4,8 km/h (1 Bft)
19.10.2018 00:00 10,8 C 89 % 1018,0 hPa 0,0 l/m NO 0,00 h 0 W/m 3,8 km/h (1 Bft)
19.10.2018 01:00 10,4 C 89 % 1018,1 hPa 0,0 l/m N 0,00 h 0 W/m 1,9 km/h (1 Bft)
19.10.2018 02:00 9,7 C 90 % 1017,9 hPa 0,0 l/m N 0,00 h 0 W/m 1,7 km/h (1 Bft)
19.10.2018 03:00 8,9 C 91 % 1017,9 hPa 0,0 l/m N 0,00 h 0 W/m 2,8 km/h (1 Bft)
19.10.2018 04:00 8,4 C 92 % 1017,8 hPa 0,0 l/m NO 0,00 h 0 W/m 3,5 km/h (1 Bft)
19.10.2018 05:00 8,1 C 93 % 1017,8 hPa 0,0 l/m NO 0,00 h 0 W/m 3,5 km/h (1 Bft)
19.10.2018 06:00 7,9 C 95 % 1018,1 hPa 0,0 l/m NO 0,00 h 0 W/m 9,4 km/h (2 Bft)
19.10.2018 07:00 7,7 C 95 % 1018,4 hPa 0,0 l/m N 0,00 h 5 W/m 0,8 km/h (0 Bft)
19.10.2018 08:00 8,0 C 96 % 1019,2 hPa 0,0 l/m NO 0,00 h 18 W/m 5,5 km/h (1 Bft)
19.10.2018 09:00 8,3 C 97 % 1019,7 hPa 0,0 l/m NO 0,00 h 52 W/m 6,8 km/h (2 Bft)
19.10.2018 10:00 8,6 C 97 % 1020,0 hPa 0,0 l/m NO 0,00 h 74 W/m 4,3 km/h (1 Bft)
19.10.2018 11:00 9,1 C 97 % 1020,2 hPa 0,0 l/m NO 0,00 h 111 W/m 4,1 km/h (1 Bft)
19.10.2018 12:00 9,9 C 97 % 1020,2 hPa 0,0 l/m NO 0,00 h 144 W/m 6,4 km/h (2 Bft)
19.10.2018 13:00 10,9 C 94 % 1020,0 hPa 0,0 l/m NO 0,00 h 189 W/m 10,2 km/h (2 Bft)
19.10.2018 14:00 11,6 C 91 % 1019,7 hPa 0,0 l/m NO 0,50 h 272 W/m 12,5 km/h (3 Bft)
19.10.2018 15:00 12,2 C 88 % 1019,6 hPa 0,0 l/m O-NO 0,33 h 207 W/m 13,0 km/h (3 Bft)
19.10.2018 16:00 12,9 C 86 % 1019,7 hPa 0,0 l/m NO 1,00 h 238 W/m 10,1 km/h (2 Bft)
19.10.2018 17:00 13,1 C 86 % 1019,7 hPa 0,0 l/m NO 1,00 h 103 W/m 9,0 km/h (2 Bft)
19.10.2018 18:00 11,9 C 89 % 1020,2 hPa 0,0 l/m NO 0,33 h 13 W/m 1,7 km/h (1 Bft)
19.10.2018 19:00 10,3 C 93 % 1020,6 hPa 0,0 l/m N 0,00 h 0 W/m 0,0 km/h (0 Bft)
19.10.2018 20:00 9,7 C 93 % 1021,1 hPa 0,0 l/m N 0,00 h 0 W/m 0,1 km/h (0 Bft)
19.10.2018 21:00 9,3 C 94 % 1021,7 hPa 0,0 l/m N 0,00 h 0 W/m 0,0 km/h (0 Bft)
19.10.2018 22:00 8,8 C 94 % 1022,3 hPa 0,0 l/m N 0,00 h 0 W/m 0,4 km/h (0 Bft)
19.10.2018 23:00 8,3 C 94 % 1022,6 hPa 0,0 l/m N 0,00 h 0 W/m 0,0 km/h (0 Bft)
20.10.2018 00:00 6,9 C 94 % 1023,0 hPa 0,0 l/m N 0,00 h 0 W/m 0,0 km/h (0 Bft)
20.10.2018 01:00 6,0 C 94 % 1023,2 hPa 0,0 l/m N 0,00 h 0 W/m 0,0 km/h (0 Bft)
20.10.2018 02:00 5,3 C 94 % 1023,4 hPa 0,0 l/m N 0,00 h 0 W/m 0,0 km/h (0 Bft)
20.10.2018 03:00 4,8 C 95 % 1023,4 hPa 0,0 l/m N 0,00 h 0 W/m 0,1 km/h (0 Bft)
20.10.2018 04:00 5,7 C 96 % 1023,6 hPa 0,0 l/m N 0,00 h 0 W/m 0,1 km/h (0 Bft)
20.10.2018 05:00 6,1 C 97 % 1023,9 hPa 0,0 l/m N 0,00 h 0 W/m 0,0 km/h (0 Bft)
20.10.2018 06:00 6,2 C 97 % 1024,6 hPa 0,0 l/m NO 0,00 h 0 W/m 2,8 km/h (1 Bft)
20.10.2018 07:00 6,0 C 97 % 1025,4 hPa 0,0 l/m N 0,00 h 5 W/m 2,3 km/h (1 Bft)
20.10.2018 08:00 5,7 C 98 % 1026,1 hPa 0,0 l/m N 0,00 h 22 W/m 0,0 km/h (0 Bft)
20.10.2018 09:00 6,0 C 98 % 1026,9 hPa 0,0 l/m N 0,00 h 65 W/m 0,4 km/h (0 Bft)
20.10.2018 10:00 6,9 C 99 % 1027,1 hPa 0,0 l/m N 0,00 h 127 W/m 0,0 km/h (0 Bft)
20.10.2018 11:00 8,4 C 99 % 1027,4 hPa 0,2 l/m N 0,00 h 196 W/m 0,4 km/h (0 Bft)
20.10.2018 12:00 10,0 C 99 % 1027,6 hPa 0,0 l/m NO 0,17 h 248 W/m 5,2 km/h (1 Bft)
20.10.2018 13:00 11,8 C 96 % 1027,2 hPa 0,0 l/m NO 1,00 h 476 W/m 4,7 km/h (1 Bft)
20.10.2018 14:00 14,3 C 84 % 1026,6 hPa 0,0 l/m NO 1,00 h 447 W/m 2,9 km/h (1 Bft)
20.10.2018 15:00 16,1 C 70 % 1026,3 hPa 0,0 l/m O 1,00 h 355 W/m 9,1 km/h (2 Bft)
20.10.2018 16:00 15,9 C 69 % 1026,1 hPa 0,0 l/m O 1,00 h 215 W/m 7,6 km/h (2 Bft)
20.10.2018 17:00 15,0 C 71 % 1026,1 hPa 0,0 l/m O 0,58 h 77 W/m 2,8 km/h (1 Bft)
20.10.2018 18:00 12,2 C 82 % 1026,3 hPa 0,0 l/m N 0,00 h 11 W/m 0,0 km/h (0 Bft)
20.10.2018 19:00 9,9 C 90 % 1026,5 hPa 0,0 l/m N 0,00 h 0 W/m 0,0 km/h (0 Bft)
20.10.2018 20:00 10,1 C 90 % 1026,9 hPa 0,0 l/m N 0,00 h 0 W/m 0,0 km/h (0 Bft)
20.10.2018 21:00 10,3 C 86 % 1027,3 hPa 0,0 l/m O 0,00 h 0 W/m 2,9 km/h (1 Bft)
20.10.2018 22:00 10,9 C 87 % 1027,4 hPa 0,0 l/m N 0,00 h 0 W/m 0,0 km/h (0 Bft)
20.10.2018 23:00 10,1 C 83 % 1027,1 hPa 0,0 l/m N 0,00 h 0 W/m 0,0 km/h (0 Bft)
21.10.2018 00:00 8,5 C 88 % 1026,9 hPa 0,0 l/m N 0,00 h 0 W/m 0,5 km/h (0 Bft)
21.10.2018 01:00 8,0 C 90 % 1026,4 hPa 0,0 l/m N 0,00 h 0 W/m 0,0 km/h (0 Bft)
21.10.2018 02:00 7,0 C 91 % 1026,1 hPa 0,0 l/m N 0,00 h 0 W/m 0,0 km/h (0 Bft)
21.10.2018 03:00 6,3 C 93 % 1026,1 hPa 0,0 l/m O 0,00 h 0 W/m 2,3 km/h (1 Bft)
21.10.2018 04:00 5,8 C 94 % 1025,8 hPa 0,0 l/m N 0,00 h 0 W/m 0,0 km/h (0 Bft)
21.10.2018 05:00 4,7 C 94 % 1025,9 hPa 0,0 l/m N 0,00 h 0 W/m 0,0 km/h (0 Bft)
21.10.2018 06:00 4,8 C 95 % 1025,8 hPa 0,0 l/m N 0,00 h 0 W/m 0,0 km/h (0 Bft)
21.10.2018 07:00 5,5 C 96 % 1025,7 hPa 0,0 l/m O 0,00 h 5 W/m 2,4 km/h (1 Bft)
21.10.2018 08:00 5,6 C 96 % 1026,0 hPa 0,0 l/m O 0,00 h 32 W/m 2,1 km/h (1 Bft)
21.10.2018 09:00 6,1 C 96 % 1026,4 hPa 0,0 l/m O 0,00 h 90 W/m 5,6 km/h (1 Bft)
21.10.2018 10:00 7,3 C 94 % 1026,3 hPa 0,0 l/m O 0,00 h 162 W/m 6,2 km/h (2 Bft)
21.10.2018 11:00 9,4 C 89 % 1026,1 hPa 0,0 l/m NO 0,75 h 398 W/m 10,9 km/h (2 Bft)
21.10.2018 12:00 12,0 C 76 % 1025,6 hPa 0,0 l/m O 1,00 h 501 W/m 18,1 km/h (3 Bft)
21.10.2018 13:00 13,3 C 68 % 1025,0 hPa 0,0 l/m O 1,00 h 513 W/m 18,8 km/h (3 Bft)
21.10.2018 14:00 13,9 C 63 % 1024,5 hPa 0,0 l/m O-NO 1,00 h 473 W/m 18,1 km/h (3 Bft)
21.10.2018 15:00 14,3 C 58 % 1024,2 hPa 0,0 l/m O-NO 1,00 h 389 W/m 17,2 km/h (3 Bft)
21.10.2018 16:00 13,6 C 56 % 1024,0 hPa 0,0 l/m O 1,00 h 253 W/m 20,6 km/h (4 Bft)
21.10.2018 17:00 12,4 C 60 % 1023,8 hPa 0,0 l/m O 0,58 h 79 W/m 16,1 km/h (3 Bft)
21.10.2018 18:00 11,0 C 63 % 1023,9 hPa 0,0 l/m O-NO 0,08 h 9 W/m 5,9 km/h (2 Bft)
21.10.2018 19:00 9,0 C 68 % 1024,1 hPa 0,0 l/m N 0,00 h 0 W/m 0,7 km/h (0 Bft)
21.10.2018 20:00 7,4 C 72 % 1024,2 hPa 0,0 l/m O-NO 0,00 h 0 W/m 5,1 km/h (1 Bft)
21.10.2018 21:00 6,8 C 73 % 1024,2 hPa 0,0 l/m O-NO 0,00 h 0 W/m 3,1 km/h (1 Bft)
21.10.2018 22:00 5,7 C 77 % 1024,4 hPa 0,0 l/m N 0,00 h 0 W/m 2,1 km/h (1 Bft)
21.10.2018 23:00 5,0 C 80 % 1024,5 hPa 0,0 l/m N 0,00 h 0 W/m 0,7 km/h (0 Bft)
Min-Datum _ 21.10.18 15.10.18 15.10.18 - - - - 15.10.18
_ Min-Zeit 05:55 15:25 00:10 - - - - 00:00
Minimum _ 4,4 C 30 % 1011,0 hPa - - - - 0,0 km/h (0 Bft)
Max-Datum _ 15.10.18 20.10.18 20.10.18 20.10.18 - 15.10.18 16.10.18 21.10.18
_ Max-Zeit 15:15 10:25 12:40 11:30 - 08:30 13:20 16:15
Maximum _ 23,7 C 99 % 1027,8 hPa 0,2 l/m - 0,08 h 568 W/m 25,7 km/h
O-NO (4 Bft)
Durchschnitt _ 11,1 C 80 % 1018,9 hPa #0,2 l/m O-NO #48:50 h 234 W/m 3,5 km/h (1 Bft)